createdAt,value
2022-08-17T00:02:26.233Z,14.30
2022-08-17T00:05:33.178Z,15.50
2022-08-17T00:08:38.043Z,10.93
2022-08-17T00:11:42.758Z,12.33
2022-08-17T00:15:10.424Z,10.53
2022-08-17T00:19:04.185Z,11.77
2022-08-17T00:22:29.498Z,12.90
2022-08-17T00:25:03.331Z,9.37
2022-08-17T00:28:06.106Z,12.67
2022-08-17T00:31:10.865Z,9.90
2022-08-17T00:34:13.462Z,10.30
2022-08-17T00:37:17.432Z,11.20
2022-08-17T00:40:20.968Z,12.27
2022-08-17T00:43:31.753Z,13.90
2022-08-17T00:46:37.063Z,11.87
2022-08-17T00:49:39.605Z,10.90
2022-08-17T00:52:55.543Z,11.87
2022-08-17T00:55:59.900Z,11.80
2022-08-17T00:59:04.928Z,12.87
2022-08-17T01:02:10.632Z,11.77
2022-08-17T01:05:18.608Z,11.13
2022-08-17T01:08:27.085Z,13.33
2022-08-17T01:11:31.950Z,11.20
2022-08-17T01:14:34.571Z,9.73
2022-08-17T01:17:37.183Z,9.33
2022-08-17T01:20:48.646Z,10.33
2022-08-17T01:23:52.915Z,10.07
2022-08-17T01:26:56.583Z,10.80
2022-08-17T01:30:04.501Z,9.40
2022-08-17T01:33:27.112Z,14.60
2022-08-17T01:36:29.776Z,11.40
2022-08-17T01:39:36.604Z,13.40
2022-08-17T01:42:45.795Z,12.73
2022-08-17T01:46:03.794Z,10.90
2022-08-17T01:49:07.965Z,13.50
2022-08-17T01:52:12.994Z,13.43
2022-08-17T01:55:25.895Z,9.53
2022-08-17T01:58:29.938Z,10.27
2022-08-17T02:01:34.602Z,12.43
2022-08-17T02:04:37.307Z,9.77
2022-08-17T02:07:58.642Z,9.60
2022-08-17T02:11:06.297Z,11.17
2022-08-17T02:14:14.893Z,10.43
2022-08-17T02:17:17.503Z,9.63
2022-08-17T02:20:41.513Z,12.97
2022-08-17T02:23:47.422Z,9.97
2022-08-17T02:26:51.611Z,10.77
2022-08-17T02:29:54.221Z,15.53
2022-08-17T02:32:57.357Z,15.00
2022-08-17T02:36:00.104Z,12.90
2022-08-17T02:39:03.896Z,10.70
2022-08-17T02:42:08.018Z,10.03
2022-08-17T02:45:14.666Z,10.43
2022-08-17T02:48:17.287Z,10.23
2022-08-17T02:51:33.544Z,10.47
2022-08-17T02:54:40.471Z,10.10
2022-08-17T02:57:46.228Z,16.47
2022-08-17T03:00:48.902Z,10.43
2022-08-17T03:03:51.574Z,10.23
2022-08-17T03:06:54.197Z,9.47
2022-08-17T03:09:56.822Z,10.73
2022-08-17T03:13:01.630Z,11.80
2022-08-17T03:16:04.666Z,8.13
2022-08-17T03:19:07.256Z,11.47
2022-08-17T03:22:35.939Z,8.93
2022-08-17T03:25:35.123Z,10.90
2022-08-17T03:28:39.543Z,10.47
2022-08-17T03:31:42.159Z,10.53
2022-08-17T03:34:44.795Z,10.40
2022-08-17T03:37:47.826Z,12.17
2022-08-17T03:41:03.227Z,11.33
2022-08-17T03:44:07.233Z,12.73
2022-08-17T03:47:27.146Z,9.47
2022-08-17T03:50:47.320Z,10.53
2022-08-17T03:54:09.957Z,12.03
2022-08-17T03:57:13.262Z,13.07
2022-08-17T04:00:17.756Z,10.10
2022-08-17T04:03:20.304Z,10.90
2022-08-17T04:06:22.922Z,9.67
2022-08-17T04:09:25.555Z,10.00
2022-08-17T04:12:30.793Z,12.37
2022-08-17T04:15:35.098Z,12.50
2022-08-17T04:18:37.742Z,13.33
2022-08-17T04:21:40.437Z,14.07
2022-08-17T04:24:43.019Z,14.30
2022-08-17T04:27:45.615Z,11.10
2022-08-17T04:30:49.595Z,13.50
2022-08-17T04:33:52.331Z,19.53
2022-08-17T04:36:54.944Z,10.00
2022-08-17T04:40:11.528Z,11.30
2022-08-17T04:43:16.371Z,10.60
2022-08-17T04:46:26.071Z,10.87
2022-08-17T04:49:28.796Z,13.63
2022-08-17T04:52:43.466Z,16.23
2022-08-17T04:55:46.777Z,16.73
2022-08-17T04:58:51.364Z,13.37
2022-08-17T05:01:55.642Z,11.70
2022-08-17T05:04:58.278Z,11.00
2022-08-17T05:08:03.525Z,11.50
2022-08-17T05:11:08.235Z,12.53
2022-08-17T05:14:10.863Z,12.63
2022-08-17T05:17:14.970Z,20.33
2022-08-17T05:20:17.795Z,13.30
2022-08-17T05:23:22.676Z,17.73
2022-08-17T05:26:27.410Z,18.80
2022-08-17T05:29:35.575Z,17.77
2022-08-17T05:32:40.478Z,13.77
2022-08-17T05:35:46.907Z,14.13
2022-08-17T05:38:50.523Z,14.67
2022-08-17T05:41:53.092Z,14.93
2022-08-17T05:44:58.856Z,16.53
2022-08-17T05:48:02.900Z,14.70
2022-08-17T05:51:22.586Z,21.47
2022-08-17T05:54:35.246Z,16.17
2022-08-17T05:57:52.940Z,15.73
2022-08-17T06:01:04.351Z,16.13
2022-08-17T06:04:17.462Z,16.83
2022-08-17T06:07:26.408Z,19.97
2022-08-17T06:10:36.031Z,18.33
2022-08-17T06:13:57.561Z,18.20
2022-08-17T06:17:04.171Z,16.47
2022-08-17T06:20:12.243Z,16.77
2022-08-17T06:23:21.596Z,19.33
2022-08-17T06:26:30.294Z,16.80
2022-08-17T06:29:50.822Z,20.43
2022-08-17T06:32:56.549Z,16.33
2022-08-17T06:36:11.271Z,15.53
2022-08-17T06:39:31.264Z,18.57
2022-08-17T06:43:04.966Z,17.93
2022-08-17T06:46:11.331Z,16.87
2022-08-17T06:49:19.793Z,14.05
2022-08-17T06:52:42.216Z,15.35
2022-08-17T06:55:58.006Z,13.40
2022-08-17T06:59:02.280Z,14.98
2022-08-17T07:02:09.549Z,15.70
2022-08-17T07:05:14.188Z,13.40
2022-08-17T07:08:29.342Z,12.05
2022-08-17T07:11:39.423Z,13.00
2022-08-17T07:14:51.666Z,14.00
2022-08-17T07:17:54.362Z,12.82
2022-08-17T07:21:03.698Z,11.13
2022-08-17T07:24:30.254Z,15.40
2022-08-17T07:27:38.797Z,13.30
2022-08-17T07:30:48.875Z,12.85
2022-08-17T07:34:06.701Z,11.18
2022-08-17T07:37:09.302Z,10.90
2022-08-17T07:40:29.851Z,9.20
2022-08-17T07:43:34.884Z,10.05
2022-08-17T07:47:09.669Z,9.05
2022-08-17T07:50:27.109Z,9.82
2022-08-17T07:53:31.157Z,9.70
2022-08-17T07:56:40.993Z,12.18
2022-08-17T08:00:04.048Z,15.73
2022-08-17T08:03:27.010Z,9.73
2022-08-17T08:06:29.762Z,8.02
2022-08-17T08:09:39.482Z,9.48
2022-08-17T08:12:44.883Z,10.57
2022-08-17T08:15:53.557Z,11.82
2022-08-17T08:18:59.290Z,10.15
2022-08-17T08:22:11.061Z,8.07
2022-08-17T08:25:25.925Z,10.02
2022-08-17T08:28:43.328Z,7.35
2022-08-17T08:32:00.010Z,8.65
2022-08-17T08:35:07.274Z,7.80
2022-08-17T08:38:18.207Z,9.65
2022-08-17T08:41:34.554Z,7.97
2022-08-17T08:45:00.413Z,10.32
2022-08-17T08:48:45.962Z,11.65
2022-08-17T08:51:51.729Z,8.82
2022-08-17T08:54:59.666Z,7.75
2022-08-17T08:58:07.463Z,14.95
2022-08-17T09:01:38.025Z,8.27
2022-08-17T09:05:13.962Z,6.72
2022-08-17T09:08:22.006Z,8.10
2022-08-17T09:11:31.745Z,7.45
2022-08-17T09:14:46.824Z,5.72
2022-08-17T09:18:14.911Z,5.43
2022-08-17T09:21:29.667Z,5.45
2022-08-17T09:24:41.646Z,7.43
2022-08-17T09:27:54.725Z,9.25
2022-08-17T09:31:03.509Z,8.43
2022-08-17T09:34:12.325Z,6.60
2022-08-17T09:37:22.710Z,7.28
2022-08-17T09:40:29.763Z,5.65
2022-08-17T09:43:39.805Z,7.68
2022-08-17T09:46:49.174Z,7.45
2022-08-17T09:49:58.602Z,5.15
2022-08-17T09:53:01.307Z,7.10
2022-08-17T09:56:32.455Z,11.32
2022-08-17T09:59:54.278Z,5.68
2022-08-17T10:03:25.656Z,6.45
2022-08-17T10:06:33.678Z,5.20
2022-08-17T10:09:47.430Z,5.60
2022-08-17T10:12:58.514Z,8.68
2022-08-17T10:16:14.647Z,7.80
2022-08-17T10:19:24.019Z,7.28
2022-08-17T10:22:53.356Z,5.93
2022-08-17T10:26:14.021Z,7.40
2022-08-17T10:29:23.527Z,6.45
2022-08-17T10:32:34.618Z,12.43
2022-08-17T10:35:47.452Z,6.68
2022-08-17T10:39:04.018Z,11.48
2022-08-17T10:42:32.232Z,9.65
2022-08-17T10:45:46.968Z,9.23
2022-08-17T10:49:26.889Z,5.20
2022-08-17T10:52:49.912Z,8.00
2022-08-17T10:56:23.174Z,9.98
2022-08-17T10:59:50.653Z,6.93
2022-08-17T11:02:55.403Z,9.43
2022-08-17T11:06:06.433Z,6.47
2022-08-17T11:09:27.876Z,8.82
2022-08-17T11:12:42.488Z,4.85
2022-08-17T11:16:09.683Z,8.05
2022-08-17T11:19:41.220Z,7.35
2022-08-17T11:23:14.609Z,5.95
2022-08-17T11:26:26.390Z,6.18
2022-08-17T11:29:36.705Z,7.35
2022-08-17T11:32:47.337Z,5.07
2022-08-17T11:35:56.265Z,8.35
2022-08-17T11:39:05.430Z,5.95
2022-08-17T11:42:21.372Z,7.40
2022-08-17T11:45:43.072Z,7.65
2022-08-17T11:49:15.236Z,9.32
2022-08-17T11:52:39.303Z,8.48
2022-08-17T11:56:05.494Z,14.02
2022-08-17T11:59:45.875Z,7.90
2022-08-17T12:03:26.357Z,5.20
2022-08-17T12:06:35.306Z,11.32
2022-08-17T12:09:42.145Z,8.63
2022-08-17T12:12:49.075Z,9.43
2022-08-17T12:15:54.034Z,8.77
2022-08-17T12:18:59.605Z,5.88
2022-08-17T12:22:10.719Z,6.78
2022-08-17T12:25:21.654Z,7.70
2022-08-17T12:28:27.738Z,8.65
2022-08-17T12:31:34.593Z,5.05
2022-08-17T12:34:42.260Z,6.18
2022-08-17T12:37:48.738Z,6.90
2022-08-17T12:40:55.021Z,11.85
2022-08-17T12:44:02.760Z,8.63
2022-08-17T12:47:19.377Z,7.03
2022-08-17T12:50:29.913Z,5.70
2022-08-17T12:53:35.823Z,9.32
2022-08-17T12:56:38.447Z,7.22
2022-08-17T12:59:43.934Z,4.70
2022-08-17T13:02:50.829Z,6.55
2022-08-17T13:06:00.877Z,5.30
2022-08-17T13:09:10.731Z,5.25
2022-08-17T13:12:13.292Z,9.13
2022-08-17T13:15:23.042Z,7.32
2022-08-17T13:18:47.274Z,6.63
2022-08-17T13:21:54.062Z,7.35
2022-08-17T13:25:00.926Z,5.55
2022-08-17T13:28:03.694Z,6.82
2022-08-17T13:31:32.564Z,5.18
2022-08-17T13:35:07.743Z,6.88
2022-08-17T13:38:06.810Z,5.15
2022-08-17T13:41:29.507Z,7.95
2022-08-17T13:44:34.966Z,5.65
2022-08-17T13:47:37.599Z,8.10
2022-08-17T13:50:43.246Z,6.25
2022-08-17T13:53:55.748Z,7.25
2022-08-17T13:57:01.865Z,5.93
2022-08-17T14:00:11.766Z,11.25
2022-08-17T14:03:15.234Z,8.68
2022-08-17T14:06:51.507Z,9.55
2022-08-17T14:09:47.683Z,8.18
2022-08-17T14:12:50.814Z,5.43
2022-08-17T14:15:55.024Z,8.98
2022-08-17T14:18:59.041Z,8.98
2022-08-17T14:22:01.827Z,14.55
2022-08-17T14:25:10.272Z,7.47
2022-08-17T14:28:13.416Z,7.50
2022-08-17T14:31:16.052Z,5.47
2022-08-17T14:34:18.817Z,12.95
2022-08-17T14:37:25.346Z,6.88
2022-08-17T14:40:29.492Z,11.57
2022-08-17T14:43:34.997Z,5.25
2022-08-17T14:46:37.731Z,10.30
2022-08-17T14:49:40.294Z,7.65
2022-08-17T14:52:43.492Z,6.70
2022-08-17T14:55:47.459Z,8.00
2022-08-17T14:58:51.798Z,5.80
2022-08-17T15:01:56.973Z,6.30
2022-08-17T15:05:01.662Z,6.00
2022-08-17T15:08:05.759Z,5.70
2022-08-17T15:11:14.191Z,7.40
2022-08-17T15:14:17.253Z,4.10
2022-08-17T15:17:19.831Z,5.13
2022-08-17T15:20:24.666Z,5.53
2022-08-17T15:23:27.882Z,9.50
2022-08-17T15:26:32.071Z,5.63
2022-08-17T15:29:34.671Z,7.38
2022-08-17T15:32:40.507Z,9.52
2022-08-17T15:35:43.626Z,9.73
2022-08-17T15:38:47.212Z,8.65
2022-08-17T15:41:58.729Z,10.73
2022-08-17T15:45:06.750Z,6.75
2022-08-17T15:48:09.934Z,8.73
2022-08-17T15:51:14.742Z,36.88
2022-08-17T15:54:22.333Z,17.55
2022-08-17T15:57:27.507Z,7.75
2022-08-17T16:00:30.517Z,11.23
2022-08-17T16:04:01.376Z,14.18
2022-08-17T16:07:01.492Z,15.48
2022-08-17T16:10:06.128Z,13.35
2022-08-17T16:13:17.777Z,19.35
2022-08-17T16:16:20.847Z,9.43
2022-08-17T16:19:23.452Z,16.55
2022-08-17T16:22:32.558Z,12.45
2022-08-17T16:25:49.226Z,18.63
2022-08-17T16:28:58.033Z,14.55
2022-08-17T16:32:12.782Z,12.60
2022-08-17T16:35:18.025Z,11.65
2022-08-17T16:38:20.893Z,17.77
2022-08-17T16:41:45.054Z,15.32
2022-08-17T16:44:49.218Z,8.73
2022-08-17T16:47:52.268Z,13.10
2022-08-17T16:51:03.419Z,14.70
2022-08-17T16:54:08.149Z,13.63
2022-08-17T16:57:11.073Z,9.15
2022-08-17T17:00:19.366Z,10.85
2022-08-17T17:03:27.012Z,11.73
2022-08-17T17:06:44.979Z,9.98
2022-08-17T17:09:48.974Z,9.73
2022-08-17T17:13:03.059Z,7.95
2022-08-17T17:16:18.462Z,15.80
2022-08-17T17:19:34.519Z,9.30
2022-08-17T17:22:47.114Z,10.48
2022-08-17T17:25:58.348Z,24.90
2022-08-17T17:29:16.242Z,11.60
2022-08-17T17:32:25.862Z,8.02
2022-08-17T17:35:33.694Z,10.38
2022-08-17T17:38:43.909Z,8.93
2022-08-17T17:41:49.936Z,6.93
2022-08-17T17:45:00.042Z,9.48
2022-08-17T17:48:04.479Z,9.25
2022-08-17T17:52:08.500Z,14.52
2022-08-17T17:54:55.099Z,9.63
2022-08-17T17:58:07.866Z,8.55
2022-08-17T18:01:31.409Z,11.88
2022-08-17T18:04:45.901Z,9.45
2022-08-17T18:07:56.451Z,12.48
2022-08-17T18:11:08.448Z,13.15
2022-08-17T18:14:24.335Z,12.27
2022-08-17T18:17:30.949Z,6.78
2022-08-17T18:20:46.684Z,13.50
2022-08-17T18:24:00.556Z,8.98
2022-08-17T18:27:08.599Z,16.92
2022-08-17T18:30:27.358Z,11.85
2022-08-17T18:33:30.072Z,9.73
2022-08-17T18:36:37.262Z,14.40
2022-08-17T18:39:40.053Z,12.60
2022-08-17T18:42:45.705Z,12.25
2022-08-17T18:45:50.351Z,18.38
2022-08-17T18:48:58.970Z,21.02
2022-08-17T18:52:14.111Z,15.00
2022-08-17T18:55:22.380Z,20.50
2022-08-17T18:58:26.623Z,20.48
2022-08-17T19:01:52.150Z,14.38
2022-08-17T19:05:07.223Z,14.05
2022-08-17T19:08:21.747Z,10.52
2022-08-17T19:11:30.021Z,13.18
2022-08-17T19:14:33.465Z,16.92
2022-08-17T19:17:43.763Z,13.07
2022-08-17T19:20:54.793Z,9.63
2022-08-17T19:24:05.911Z,14.82
2022-08-17T19:27:15.091Z,10.70
2022-08-17T19:30:21.253Z,10.32
2022-08-17T19:33:24.074Z,10.03
2022-08-17T19:36:36.888Z,13.77
2022-08-17T19:39:51.448Z,11.85
2022-08-17T19:43:03.591Z,15.02
2022-08-17T19:46:17.787Z,11.65
2022-08-17T19:49:41.415Z,12.23
2022-08-17T19:52:52.726Z,13.37
2022-08-17T19:56:04.214Z,11.15
2022-08-17T19:59:14.249Z,9.20
2022-08-17T20:02:27.359Z,10.80
2022-08-17T20:05:44.411Z,8.30
2022-08-17T20:09:00.231Z,9.60
2022-08-17T20:12:09.392Z,8.53
2022-08-17T20:15:26.166Z,10.23
2022-08-17T20:18:36.217Z,7.73
2022-08-17T20:21:46.205Z,10.93
2022-08-17T20:24:55.197Z,6.60
2022-08-17T20:28:05.887Z,11.15
2022-08-17T20:31:42.042Z,8.53
2022-08-17T20:34:47.977Z,8.43
2022-08-17T20:37:57.640Z,5.87
2022-08-17T20:41:12.424Z,7.87
2022-08-17T20:44:33.834Z,8.43
2022-08-17T20:48:07.416Z,8.17
2022-08-17T20:51:20.047Z,6.93
2022-08-17T20:54:46.027Z,7.70
2022-08-17T20:57:49.318Z,6.87
2022-08-17T21:01:12.007Z,8.87
2022-08-17T21:04:47.338Z,5.80
2022-08-17T21:07:57.883Z,6.93
2022-08-17T21:11:02.443Z,11.83
2022-08-17T21:14:10.119Z,8.20
2022-08-17T21:17:31.023Z,6.63
2022-08-17T21:20:45.759Z,5.73
2022-08-17T21:24:03.700Z,7.47
2022-08-17T21:27:21.395Z,8.73
2022-08-17T21:30:47.491Z,5.57
2022-08-17T21:34:24.704Z,7.37
2022-08-17T21:37:32.690Z,5.90
2022-08-17T21:40:35.511Z,8.93
2022-08-17T21:43:49.710Z,8.23
2022-08-17T21:46:54.175Z,6.00
2022-08-17T21:50:16.019Z,6.17
2022-08-17T21:53:29.385Z,6.43
2022-08-17T21:56:39.630Z,8.60
2022-08-17T21:59:44.115Z,6.03
2022-08-17T22:02:55.764Z,5.60
2022-08-17T22:05:59.751Z,5.53
2022-08-17T22:09:19.221Z,6.23
2022-08-17T22:12:24.134Z,5.03
2022-08-17T22:15:26.782Z,7.87
2022-08-17T22:18:30.058Z,6.00
2022-08-17T22:21:34.010Z,7.70
2022-08-17T22:24:37.707Z,9.17
2022-08-17T22:27:49.917Z,4.73
2022-08-17T22:31:03.425Z,6.67
2022-08-17T22:34:15.198Z,7.10
2022-08-17T22:37:28.764Z,8.33
2022-08-17T22:40:34.379Z,7.23
2022-08-17T22:43:43.657Z,5.17
2022-08-17T22:46:56.240Z,8.30
2022-08-17T22:50:01.109Z,6.33
2022-08-17T22:53:33.888Z,8.73
2022-08-17T22:56:54.696Z,5.90
2022-08-17T22:59:57.977Z,7.07
2022-08-17T23:03:11.378Z,10.70
2022-08-17T23:06:14.001Z,6.83
2022-08-17T23:09:17.961Z,7.07
2022-08-17T23:12:26.318Z,8.93
2022-08-17T23:15:33.860Z,6.20
2022-08-17T23:18:37.330Z,5.37
2022-08-17T23:21:40.428Z,6.03
2022-08-17T23:24:48.910Z,7.77
2022-08-17T23:27:51.597Z,4.93
2022-08-17T23:30:54.312Z,5.73
2022-08-17T23:33:57.628Z,5.33
2022-08-17T23:37:04.197Z,10.47
2022-08-17T23:40:09.620Z,5.90
2022-08-17T23:43:24.878Z,6.17
2022-08-17T23:46:28.099Z,6.27
2022-08-17T23:49:31.275Z,5.30
2022-08-17T23:52:37.774Z,6.00
2022-08-17T23:55:41.701Z,5.33
2022-08-17T23:58:44.989Z,9.37
